Time;durP1;ratioP1;P1;durP2;ratioP2;P2;SDS_P1;SDS_P2;PMS_P1;PMS_P2;Temp;Humidity;BMP_temperature;BMP_pressure;BME280_temperature;BME280_humidity;BME280_pressure;Samples;Min_cycle;Max_cycle;Signal;HPM_P1;HPM_P2
2021/07/07 00:00:30;;;;;;;3.33;1.10;;;;;;;;;;3585042;40;20031;-67
2021/07/07 00:02:56;;;;;;;1.30;0.80;;;;;;;;;;3585303;40;20044;-66
2021/07/07 00:05:21;;;;;;;2.20;1.10;;;;;;;;;;3586102;40;20121;-67
2021/07/07 00:07:46;;;;;;;6.67;1.10;;;;;;;;;;3586325;40;20212;-67
2021/07/07 00:10:11;;;;;;;1.53;1.20;;;;;;;;;;3584510;40;20299;-67
2021/07/07 00:12:37;;;;;;;2.03;1.13;;;;;;;;;;3585429;40;20362;-67
2021/07/07 00:15:02;;;;;;;4.27;1.10;;;;;;;;;;3585384;40;20275;-66
2021/07/07 00:17:27;;;;;;;1.20;1.00;;;;;;;;;;3585258;40;20410;-66
2021/07/07 00:19:52;;;;;;;1.33;1.10;;;;;;;;;;3584127;40;20862;-67
2021/07/07 00:22:17;;;;;;;1.20;1.10;;;;;;;;;;3583588;40;20047;-66
2021/07/07 00:24:42;;;;;;;4.53;1.70;;;;;;;;;;3585230;40;20078;-67
2021/07/07 00:27:08;;;;;;;2.33;1.03;;;;;;;;;;3585782;40;20028;-67
2021/07/07 00:29:33;;;;;;;4.55;1.10;;;;;;;;;;3584665;40;20024;-67
2021/07/07 00:31:58;;;;;;;1.30;1.20;;;;;;;;;;3584940;40;20031;-67
2021/07/07 00:34:23;;;;;;;1.43;1.00;;;;;;;;;;3585462;40;20054;-66
2021/07/07 00:36:49;;;;;;;2.30;1.20;;;;;;;;;;3585032;40;20344;-66
2021/07/07 00:39:14;;;;;;;1.23;1.07;;;;;;;;;;3586603;40;20702;-66
2021/07/07 00:41:39;;;;;;;1.53;1.17;;;;;;;;;;3585809;40;20036;-67
2021/07/07 00:44:04;;;;;;;1.63;1.03;;;;;;;;;;3584726;40;20279;-67
2021/07/07 00:46:29;;;;;;;1.67;1.40;;;;;;;;;;3584210;40;20495;-67
2021/07/07 00:48:55;;;;;;;3.27;1.27;;;;;;;;;;3585423;40;20044;-67
2021/07/07 00:51:20;;;;;;;4.83;0.97;;;;;;;;;;3583976;40;20119;-67
2021/07/07 00:53:45;;;;;;;1.60;1.30;;;;;;;;;;3585975;40;20033;-67
2021/07/07 00:56:10;;;;;;;3.33;1.00;;;;;;;;;;3591458;39;20566;-67
2021/07/07 00:58:35;;;;;;;3.67;1.40;;;;;;;;;;3585480;40;20036;-67
2021/07/07 01:01:01;;;;;;;4.10;1.10;;;;;;;;;;3583891;40;20105;-67
2021/07/07 01:03:26;;;;;;;1.63;1.33;;;;;;;;;;3583923;40;20055;-67
2021/07/07 01:05:51;;;;;;;2.00;1.10;;;;;;;;;;3600159;39;20106;-66
2021/07/07 01:08:16;;;;;;;7.50;1.47;;;;;;;;;;3586893;40;20401;-68
2021/07/07 01:10:41;;;;;;;2.83;1.52;;;;;;;;;;3584573;40;20033;-67
2021/07/07 01:13:06;;;;;;;1.40;1.20;;;;;;;;;;3586705;40;20044;-67
2021/07/07 01:15:32;;;;;;;3.10;1.30;;;;;;;;;;3585495;40;20341;-68
2021/07/07 01:17:57;;;;;;;5.50;1.37;;;;;;;;;;3585971;40;20043;-66
2021/07/07 01:20:22;;;;;;;3.97;1.63;;;;;;;;;;3584893;40;20020;-66
2021/07/07 01:22:48;;;;;;;8.40;1.60;;;;;;;;;;3585116;40;20036;-66
2021/07/07 01:25:13;;;;;;;2.10;1.30;;;;;;;;;;3591591;39;20040;-67
2021/07/07 01:27:39;;;;;;;5.03;1.07;;;;;;;;;;3585485;40;20028;-67
2021/07/07 01:30:04;;;;;;;2.33;1.20;;;;;;;;;;3584499;40;20246;-68
2021/07/07 01:32:29;;;;;;;2.17;1.37;;;;;;;;;;3585214;39;20040;-67
2021/07/07 01:34:54;;;;;;;4.07;1.20;;;;;;;;;;3585666;40;20129;-68
2021/07/07 01:37:19;;;;;;;2.33;1.10;;;;;;;;;;3586829;40;20032;-66
2021/07/07 01:39:45;;;;;;;2.00;1.23;;;;;;;;;;3601631;39;20309;-67
2021/07/07 01:42:10;;;;;;;2.83;1.50;;;;;;;;;;3586382;40;20289;-67
2021/07/07 01:44:35;;;;;;;1.73;1.30;;;;;;;;;;3584660;40;20040;-67
2021/07/07 01:47:03;;;;;;;8.10;1.37;;;;;;;;;;3585270;40;20025;-67
2021/07/07 01:49:28;;;;;;;4.85;1.48;;;;;;;;;;3584979;40;20029;-66
2021/07/07 01:51:53;;;;;;;9.27;1.70;;;;;;;;;;3585179;40;20020;-67
2021/07/07 01:54:18;;;;;;;1.73;1.27;;;;;;;;;;3586588;40;20036;-66
2021/07/07 01:56:43;;;;;;;3.13;1.37;;;;;;;;;;3585230;40;20032;-67
2021/07/07 01:59:08;;;;;;;7.28;1.20;;;;;;;;;;3586582;40;20024;-67
2021/07/07 02:01:34;;;;;;;2.60;1.47;;;;;;;;;;3582289;40;20065;-64
2021/07/07 02:03:59;;;;;;;5.23;1.20;;;;;;;;;;3585648;40;20043;-65
2021/07/07 02:06:24;;;;;;;5.23;1.60;;;;;;;;;;3584616;40;20120;-66
2021/07/07 02:08:49;;;;;;;3.03;1.37;;;;;;;;;;3585489;40;20445;-66
2021/07/07 02:11:15;;;;;;;1.87;1.50;;;;;;;;;;3585988;40;20239;-65
2021/07/07 02:13:40;;;;;;;3.47;1.47;;;;;;;;;;3585861;40;20036;-66
2021/07/07 02:16:05;;;;;;;8.10;1.47;;;;;;;;;;3585059;40;20028;-66
2021/07/07 02:18:30;;;;;;;4.27;1.70;;;;;;;;;;3583134;39;20024;-66
2021/07/07 02:20:55;;;;;;;3.53;1.60;;;;;;;;;;3584378;40;20105;-66
2021/07/07 02:23:20;;;;;;;7.90;1.90;;;;;;;;;;3585367;40;20031;-66
2021/07/07 02:25:46;;;;;;;6.87;1.87;;;;;;;;;;3585783;40;20020;-66
2021/07/07 02:28:11;;;;;;;4.67;1.63;;;;;;;;;;3584997;40;20270;-66
2021/07/07 02:30:36;;;;;;;3.20;1.50;;;;;;;;;;3584826;40;20617;-66
2021/07/07 02:33:01;;;;;;;2.73;1.63;;;;;;;;;;3586180;40;20039;-66
2021/07/07 02:35:27;;;;;;;2.87;1.63;;;;;;;;;;3583771;40;20102;-66
2021/07/07 02:37:53;;;;;;;6.63;1.90;;;;;;;;;;3586083;40;20270;-66
2021/07/07 02:40:19;;;;;;;6.85;1.75;;;;;;;;;;3583636;40;20287;-66
2021/07/07 02:42:44;;;;;;;8.50;1.77;;;;;;;;;;3586759;40;20042;-67
2021/07/07 02:45:09;;;;;;;12.60;2.10;;;;;;;;;;3586439;40;20095;-67
2021/07/07 02:47:34;;;;;;;7.10;2.20;;;;;;;;;;3585348;40;20027;-67
2021/07/07 02:49:59;;;;;;;3.70;1.90;;;;;;;;;;3585517;40;20074;-67
2021/07/07 02:52:25;;;;;;;4.33;1.80;;;;;;;;;;3586050;40;20021;-67
2021/07/07 02:54:50;;;;;;;6.50;2.30;;;;;;;;;;3594564;39;20032;-67
2021/07/07 02:57:18;;;;;;;10.57;1.77;;;;;;;;;;3585651;40;20297;-67
2021/07/07 02:59:43;;;;;;;6.15;2.30;;;;;;;;;;3584860;40;20033;-66
2021/07/07 03:02:08;;;;;;;11.43;2.80;;;;;;;;;;3584742;40;20313;-65
2021/07/07 03:04:34;;;;;;;8.63;2.00;;;;;;;;;;3581620;40;20048;-67
2021/07/07 03:06:59;;;;;;;6.50;2.47;;;;;;;;;;3582524;40;20270;-67
2021/07/07 03:09:24;;;;;;;6.67;2.73;;;;;;;;;;3585983;40;20039;-66
2021/07/07 03:11:49;;;;;;;13.57;3.50;;;;;;;;;;3584445;40;20029;-67
2021/07/07 03:14:14;;;;;;;17.00;4.07;;;;;;;;;;3584702;40;20088;-66
2021/07/07 03:16:40;;;;;;;18.52;5.70;;;;;;;;;;3586349;40;20031;-66
2021/07/07 03:19:05;;;;;;;5.17;2.73;;;;;;;;;;3587404;40;20122;-67
2021/07/07 03:21:30;;;;;;;3.90;2.97;;;;;;;;;;3585147;40;20400;-66
2021/07/07 03:23:55;;;;;;;14.50;4.40;;;;;;;;;;3585596;40;20028;-66
2021/07/07 03:26:20;;;;;;;11.10;3.72;;;;;;;;;;3584789;40;20032;-67
2021/07/07 03:28:47;;;;;;;10.03;3.27;;;;;;;;;;3586980;39;20200;-66
2021/07/07 03:31:13;;;;;;;10.10;2.83;;;;;;;;;;3591461;39;20263;-66
2021/07/07 03:33:38;;;;;;;13.90;2.77;;;;;;;;;;3587249;40;20120;-66
2021/07/07 03:36:04;;;;;;;4.43;2.53;;;;;;;;;;3586966;40;20035;-66
2021/07/07 03:38:29;;;;;;;6.72;2.95;;;;;;;;;;3586163;40;20034;-66
2021/07/07 03:40:54;;;;;;;4.70;2.40;;;;;;;;;;3585148;40;20029;-66
2021/07/07 03:43:19;;;;;;;4.37;2.73;;;;;;;;;;3585547;40;20243;-66
2021/07/07 03:45:45;;;;;;;5.47;3.17;;;;;;;;;;3585748;40;20517;-67
2021/07/07 03:48:10;;;;;;;9.93;3.43;;;;;;;;;;3584406;40;20041;-67
2021/07/07 03:50:35;;;;;;;8.52;2.67;;;;;;;;;;3587365;40;20028;-67
2021/07/07 03:53:01;;;;;;;9.70;3.00;;;;;;;;;;3586936;40;20117;-66
2021/07/07 03:55:26;;;;;;;8.85;2.80;;;;;;;;;;3586887;40;20024;-66
2021/07/07 03:57:51;;;;;;;9.10;3.17;;;;;;;;;;3583336;40;20085;-66
2021/07/07 04:00:17;;;;;;;7.20;3.03;;;;;;;;;;3586534;40;20035;-66
2021/07/07 04:02:42;;;;;;;7.70;3.00;;;;;;;;;;3587545;40;20035;-66
2021/07/07 04:05:07;;;;;;;6.93;3.43;;;;;;;;;;3586264;40;20070;-65
2021/07/07 04:07:32;;;;;;;11.07;3.88;;;;;;;;;;3584347;40;20259;-66
2021/07/07 04:09:58;;;;;;;14.30;3.40;;;;;;;;;;3585281;40;20032;-66
2021/07/07 04:12:23;;;;;;;5.37;3.37;;;;;;;;;;3584993;40;20071;-67
2021/07/07 04:14:48;;;;;;;5.83;3.27;;;;;;;;;;3587223;40;20112;-66
2021/07/07 04:17:13;;;;;;;5.33;2.93;;;;;;;;;;3583985;40;20044;-66
2021/07/07 04:19:38;;;;;;;7.40;3.00;;;;;;;;;;3586392;40;20028;-66
2021/07/07 04:22:04;;;;;;;8.63;3.25;;;;;;;;;;3586415;40;20036;-67
2021/07/07 04:24:29;;;;;;;7.25;3.00;;;;;;;;;;3581564;40;20027;-65
2021/07/07 04:26:54;;;;;;;7.53;3.57;;;;;;;;;;3585063;40;20044;-67
2021/07/07 04:29:19;;;;;;;13.07;3.40;;;;;;;;;;3587641;40;20028;-67
2021/07/07 04:31:44;;;;;;;7.60;3.50;;;;;;;;;;3583865;40;20282;-66
2021/07/07 04:34:10;;;;;;;5.87;3.70;;;;;;;;;;3593350;39;20132;-66
2021/07/07 04:36:35;;;;;;;6.47;3.83;;;;;;;;;;3586500;40;20070;-66
2021/07/07 04:39:00;;;;;;;10.00;2.90;;;;;;;;;;3585119;40;20068;-66
2021/07/07 04:41:25;;;;;;;7.10;2.60;;;;;;;;;;3585986;39;20028;-66
2021/07/07 04:43:50;;;;;;;8.07;3.00;;;;;;;;;;3585396;40;20040;-65
2021/07/07 04:46:17;;;;;;;5.13;3.37;;;;;;;;;;3583522;40;20141;-67
2021/07/07 04:48:42;;;;;;;4.65;2.75;;;;;;;;;;3584627;40;20032;-67
2021/07/07 04:51:07;;;;;;;6.67;4.00;;;;;;;;;;3586023;40;20092;-66
2021/07/07 04:53:32;;;;;;;6.97;3.27;;;;;;;;;;3586747;40;20548;-65
2021/07/07 04:55:58;;;;;;;11.77;3.47;;;;;;;;;;3585856;40;20270;-67
2021/07/07 04:58:26;;;;;;;10.35;4.13;;;;;;;;;;3584811;40;20020;-66
2021/07/07 05:00:51;;;;;;;10.60;3.38;;;;;;;;;;3585681;40;20117;-66
2021/07/07 05:03:16;;;;;;;11.07;3.63;;;;;;;;;;3585534;40;20077;-67
2021/07/07 05:05:41;;;;;;;9.05;3.30;;;;;;;;;;3585094;40;20039;-66
2021/07/07 05:08:07;;;;;;;7.90;3.30;;;;;;;;;;3587670;40;20024;-66
2021/07/07 05:10:32;;;;;;;6.72;3.53;;;;;;;;;;3585924;40;20039;-66
2021/07/07 05:12:57;;;;;;;6.57;3.92;;;;;;;;;;3587169;40;20028;-66
2021/07/07 05:15:22;;;;;;;7.30;3.00;;;;;;;;;;3587613;40;20038;-66
2021/07/07 05:17:48;;;;;;;6.47;2.80;;;;;;;;;;3585400;40;20037;-66
2021/07/07 05:20:13;;;;;;;4.80;2.70;;;;;;;;;;3584039;40;20278;-66
2021/07/07 05:22:40;;;;;;;8.93;3.03;;;;;;;;;;3585477;40;20267;-65
2021/07/07 05:25:05;;;;;;;12.82;3.55;;;;;;;;;;3585448;40;20289;-66
2021/07/07 05:27:30;;;;;;;11.47;3.90;;;;;;;;;;3583585;40;20027;-67
2021/07/07 05:29:57;;;;;;;12.60;3.47;;;;;;;;;;3586237;40;20394;-67
2021/07/07 05:32:22;;;;;;;5.13;3.10;;;;;;;;;;3586436;40;20056;-67
2021/07/07 05:34:47;;;;;;;8.47;3.20;;;;;;;;;;3585857;40;20035;-67
2021/07/07 05:37:13;;;;;;;7.20;3.60;;;;;;;;;;3585468;40;20028;-66
2021/07/07 05:39:39;;;;;;;5.88;3.50;;;;;;;;;;3592970;39;20028;-67
2021/07/07 05:42:04;;;;;;;7.00;3.20;;;;;;;;;;3586534;40;20305;-67
2021/07/07 05:44:29;;;;;;;7.93;3.57;;;;;;;;;;3585390;40;20129;-67
2021/07/07 05:46:54;;;;;;;4.70;3.47;;;;;;;;;;3588891;40;20032;-67
2021/07/07 05:49:19;;;;;;;6.63;3.70;;;;;;;;;;3583313;40;20024;-67
2021/07/07 05:51:44;;;;;;;6.50;3.53;;;;;;;;;;3586288;40;20024;-67
2021/07/07 05:54:10;;;;;;;4.53;3.03;;;;;;;;;;3585910;40;20128;-67
2021/07/07 05:56:35;;;;;;;10.53;3.43;;;;;;;;;;3586671;40;20305;-68
2021/07/07 05:59:00;;;;;;;6.77;3.50;;;;;;;;;;3584586;40;20287;-67
2021/07/07 06:01:25;;;;;;;7.23;3.50;;;;;;;;;;3586146;40;20403;-67
2021/07/07 06:03:50;;;;;;;8.97;4.30;;;;;;;;;;3585845;40;20020;-67
2021/07/07 06:06:16;;;;;;;10.20;3.87;;;;;;;;;;3585224;40;20033;-65
2021/07/07 06:08:41;;;;;;;7.77;4.40;;;;;;;;;;3587480;40;20828;-68
2021/07/07 06:11:06;;;;;;;7.27;4.20;;;;;;;;;;3586817;40;20025;-67
2021/07/07 06:13:31;;;;;;;7.57;4.03;;;;;;;;;;3585996;40;20668;-65
2021/07/07 06:15:56;;;;;;;6.67;3.63;;;;;;;;;;3588107;40;20035;-67
2021/07/07 06:18:22;;;;;;;9.37;4.53;;;;;;;;;;3584055;40;20690;-67
2021/07/07 06:20:47;;;;;;;8.93;4.33;;;;;;;;;;3587244;40;20340;-67
2021/07/07 06:23:12;;;;;;;7.63;4.10;;;;;;;;;;3584983;40;20307;-67
2021/07/07 06:25:37;;;;;;;8.37;4.20;;;;;;;;;;3583979;40;20020;-67
2021/07/07 06:28:03;;;;;;;9.50;4.00;;;;;;;;;;3584417;40;20392;-67
2021/07/07 06:30:28;;;;;;;9.57;3.92;;;;;;;;;;3586929;40;20036;-67
2021/07/07 06:32:53;;;;;;;9.43;4.10;;;;;;;;;;3585977;40;20589;-65
2021/07/07 06:35:19;;;;;;;7.73;3.97;;;;;;;;;;3587100;40;20048;-66
2021/07/07 06:37:44;;;;;;;6.73;3.53;;;;;;;;;;3586587;40;20222;-67
2021/07/07 06:40:09;;;;;;;7.40;3.45;;;;;;;;;;3585786;40;20247;-66
2021/07/07 06:42:34;;;;;;;5.60;3.57;;;;;;;;;;3584940;40;20105;-67
2021/07/07 06:44:59;;;;;;;8.00;3.37;;;;;;;;;;3583082;40;20051;-67
2021/07/07 06:47:25;;;;;;;6.87;3.23;;;;;;;;;;3587112;40;20039;-67
2021/07/07 06:49:50;;;;;;;8.40;3.43;;;;;;;;;;3586042;40;20417;-66
2021/07/07 06:52:16;;;;;;;7.97;3.33;;;;;;;;;;3583639;40;20051;-67
2021/07/07 06:54:42;;;;;;;5.43;3.10;;;;;;;;;;3586723;40;20040;-67
2021/07/07 06:57:07;;;;;;;7.10;3.75;;;;;;;;;;3583793;40;20055;-67
2021/07/07 06:59:32;;;;;;;5.87;3.87;;;;;;;;;;3584335;40;20032;-67
2021/07/07 07:01:58;;;;;;;4.63;3.30;;;;;;;;;;3584546;40;20612;-68
2021/07/07 07:04:23;;;;;;;10.43;3.83;;;;;;;;;;3587910;40;20032;-67
2021/07/07 07:06:48;;;;;;;6.67;3.57;;;;;;;;;;3586775;40;20677;-66
2021/07/07 07:09:13;;;;;;;9.98;3.90;;;;;;;;;;3585277;40;20256;-67
2021/07/07 07:11:39;;;;;;;5.63;3.30;;;;;;;;;;3584270;40;20321;-67
2021/07/07 07:14:04;;;;;;;5.95;3.10;;;;;;;;;;3585090;40;20360;-67
2021/07/07 07:16:31;;;;;;;4.35;3.50;;;;;;;;;;3586625;39;20145;-61
2021/07/07 07:18:56;;;;;;;8.03;3.37;;;;;;;;;;3584758;40;20076;-61
2021/07/07 07:21:21;;;;;;;7.73;3.93;;;;;;;;;;3587840;39;20076;-61
2021/07/07 07:23:47;;;;;;;7.13;4.10;;;;;;;;;;3585362;39;20069;-62
2021/07/07 07:26:12;;;;;;;9.37;4.23;;;;;;;;;;3584939;40;20032;-61
2021/07/07 07:28:37;;;;;;;12.57;3.90;;;;;;;;;;3592312;39;20262;-61
2021/07/07 07:31:03;;;;;;;5.97;4.13;;;;;;;;;;3587040;39;20024;-62
2021/07/07 07:33:28;;;;;;;14.68;8.23;;;;;;;;;;3587631;40;20063;-62
2021/07/07 07:35:53;;;;;;;6.60;4.68;;;;;;;;;;3583908;40;20027;-62
2021/07/07 07:38:40;;;;;;;6.72;4.47;;;;;;;;;;3582181;40;20048;-62
2021/07/07 07:41:06;;;;;;;7.72;4.10;;;;;;;;;;3584979;40;20036;-62
2021/07/07 07:43:31;;;;;;;9.23;4.20;;;;;;;;;;3583035;40;20050;-63
2021/07/07 07:45:58;;;;;;;11.10;4.18;;;;;;;;;;3582563;40;20102;-62
2021/07/07 07:48:23;;;;;;;5.30;3.85;;;;;;;;;;3592314;39;20021;-62
2021/07/07 07:50:48;;;;;;;9.13;4.60;;;;;;;;;;3584931;40;20134;-62
2021/07/07 07:53:14;;;;;;;8.73;4.63;;;;;;;;;;3583753;40;20063;-62
2021/07/07 07:55:39;;;;;;;8.10;4.37;;;;;;;;;;3582974;40;20032;-62
2021/07/07 07:58:04;;;;;;;8.60;4.43;;;;;;;;;;3583711;40;20070;-62
2021/07/07 08:00:29;;;;;;;6.23;3.57;;;;;;;;;;3580351;40;20231;-62
2021/07/07 08:02:55;;;;;;;8.57;3.97;;;;;;;;;;3582767;40;20308;-62
2021/07/07 08:05:20;;;;;;;10.00;4.30;;;;;;;;;;3585124;40;20259;-62
2021/07/07 08:07:45;;;;;;;7.93;4.10;;;;;;;;;;3582184;40;20040;-62
2021/07/07 08:10:10;;;;;;;9.43;3.80;;;;;;;;;;3583572;40;20392;-62
2021/07/07 08:12:36;;;;;;;5.87;3.90;;;;;;;;;;3584150;40;20044;-61
2021/07/07 08:15:01;;;;;;;5.77;3.93;;;;;;;;;;3581355;40;20056;-61
2021/07/07 08:17:26;;;;;;;10.40;4.70;;;;;;;;;;3586521;40;20844;-61
2021/07/07 08:19:51;;;;;;;9.40;4.57;;;;;;;;;;3585331;40;20040;-61
2021/07/07 08:22:16;;;;;;;12.03;4.90;;;;;;;;;;3582962;40;20262;-62
2021/07/07 08:24:42;;;;;;;10.43;5.27;;;;;;;;;;3584587;40;20634;-62
2021/07/07 08:27:08;;;;;;;13.10;4.97;;;;;;;;;;3586166;40;20251;-62
2021/07/07 08:29:33;;;;;;;7.07;4.15;;;;;;;;;;3585358;40;20036;-62
2021/07/07 08:31:58;;;;;;;12.10;4.13;;;;;;;;;;3585145;40;20376;-62
2021/07/07 08:34:24;;;;;;;8.73;4.93;;;;;;;;;;3585532;40;20040;-62
2021/07/07 08:36:49;;;;;;;6.13;4.43;;;;;;;;;;3583081;40;21094;-62
2021/07/07 08:39:14;;;;;;;6.13;3.87;;;;;;;;;;3582398;40;20267;-63
2021/07/07 08:41:39;;;;;;;6.50;3.97;;;;;;;;;;3595471;39;20396;-62
2021/07/07 08:44:06;;;;;;;6.40;4.53;;;;;;;;;;3585903;40;20393;-62
2021/07/07 08:46:32;;;;;;;10.98;4.80;;;;;;;;;;3600313;39;20043;-62
2021/07/07 08:48:57;;;;;;;7.07;4.30;;;;;;;;;;3585970;39;20474;-62
2021/07/07 08:51:22;;;;;;;6.80;3.80;;;;;;;;;;3586064;40;20623;-62
2021/07/07 08:53:47;;;;;;;8.70;3.57;;;;;;;;;;3584349;40;20738;-62
2021/07/07 08:56:13;;;;;;;6.68;3.95;;;;;;;;;;3586749;40;20028;-62
2021/07/07 08:58:38;;;;;;;4.22;2.30;;;;;;;;;;3582736;40;20040;-62
2021/07/07 09:01:03;;;;;;;4.85;2.45;;;;;;;;;;3583929;40;21099;-62
2021/07/07 09:03:29;;;;;;;3.60;2.70;;;;;;;;;;3590032;39;20399;-61
2021/07/07 09:05:54;;;;;;;5.05;2.70;;;;;;;;;;3583373;40;20043;-61
2021/07/07 09:08:19;;;;;;;7.67;2.87;;;;;;;;;;3583843;40;20288;-62
2021/07/07 09:10:45;;;;;;;5.07;2.70;;;;;;;;;;3584417;40;20043;-62
2021/07/07 09:13:10;;;;;;;4.23;2.23;;;;;;;;;;3583063;40;20104;-62
2021/07/07 09:15:35;;;;;;;8.23;2.73;;;;;;;;;;3578207;40;20519;-62
2021/07/07 09:18:00;;;;;;;10.03;2.83;;;;;;;;;;3582348;40;20035;-62
2021/07/07 09:20:26;;;;;;;4.50;2.40;;;;;;;;;;3583371;40;20187;-62
2021/07/07 09:22:51;;;;;;;3.72;2.60;;;;;;;;;;3582031;40;20032;-62
2021/07/07 09:25:19;;;;;;;4.80;2.17;;;;;;;;;;3584556;40;20089;-61
2021/07/07 09:27:45;;;;;;;3.92;1.95;;;;;;;;;;3583876;39;20271;-61
2021/07/07 09:30:10;;;;;;;4.40;2.10;;;;;;;;;;3581097;40;20363;-62
2021/07/07 09:32:36;;;;;;;4.47;2.30;;;;;;;;;;3582626;40;20041;-62
2021/07/07 09:35:01;;;;;;;6.70;2.00;;;;;;;;;;3582415;39;20555;-62
2021/07/07 09:37:27;;;;;;;5.07;1.80;;;;;;;;;;3584600;40;20021;-62
2021/07/07 09:39:52;;;;;;;6.57;1.90;;;;;;;;;;3586484;40;20036;-62
2021/07/07 09:42:17;;;;;;;4.75;1.85;;;;;;;;;;3585173;40;20568;-61
2021/07/07 09:44:42;;;;;;;4.17;1.83;;;;;;;;;;3583412;40;20503;-61
2021/07/07 09:47:07;;;;;;;3.07;2.00;;;;;;;;;;3582528;40;20035;-62
2021/07/07 09:49:33;;;;;;;6.53;2.00;;;;;;;;;;3582602;40;20025;-62
2021/07/07 09:51:58;;;;;;;4.63;2.07;;;;;;;;;;3587469;40;20020;-62
2021/07/07 09:54:23;;;;;;;3.37;1.70;;;;;;;;;;3583802;40;20119;-61
2021/07/07 09:56:48;;;;;;;3.67;1.73;;;;;;;;;;3582083;40;20091;-62
2021/07/07 09:59:13;;;;;;;3.47;1.83;;;;;;;;;;3581870;40;20032;-61
2021/07/07 10:01:39;;;;;;;9.67;2.20;;;;;;;;;;3585736;40;20034;-62
2021/07/07 10:04:05;;;;;;;6.13;2.33;;;;;;;;;;3584928;40;20889;-62
2021/07/07 10:06:30;;;;;;;3.33;2.20;;;;;;;;;;3587287;40;20238;-62
2021/07/07 10:08:56;;;;;;;5.87;2.27;;;;;;;;;;3585606;40;20028;-62
2021/07/07 10:11:21;;;;;;;4.87;2.47;;;;;;;;;;3592461;39;20180;-62
2021/07/07 10:13:46;;;;;;;6.73;2.30;;;;;;;;;;3586009;40;20366;-62
2021/07/07 10:16:12;;;;;;;7.72;2.40;;;;;;;;;;3586182;40;20068;-62
2021/07/07 10:18:37;;;;;;;6.27;2.37;;;;;;;;;;3589054;40;20027;-62
2021/07/07 10:21:02;;;;;;;6.70;2.67;;;;;;;;;;3585332;40;20036;-62
2021/07/07 10:23:27;;;;;;;4.13;2.40;;;;;;;;;;3585599;40;20135;-62
2021/07/07 10:25:53;;;;;;;5.80;2.10;;;;;;;;;;3585995;40;20033;-62
2021/07/07 10:28:18;;;;;;;4.17;2.10;;;;;;;;;;3592411;39;20047;-62
2021/07/07 10:30:43;;;;;;;3.90;2.20;;;;;;;;;;3583428;40;20830;-62
2021/07/07 10:33:08;;;;;;;2.97;2.33;;;;;;;;;;3591598;39;20075;-62
2021/07/07 10:35:34;;;;;;;4.87;2.50;;;;;;;;;;3585046;40;20031;-62
2021/07/07 10:37:59;;;;;;;4.13;2.10;;;;;;;;;;3587080;40;20023;-62
2021/07/07 10:40:24;;;;;;;4.00;2.57;;;;;;;;;;3583761;40;20273;-62
2021/07/07 10:42:49;;;;;;;7.55;2.90;;;;;;;;;;3583339;40;20039;-63
2021/07/07 10:45:15;;;;;;;7.85;2.35;;;;;;;;;;3584515;40;20087;-66
2021/07/07 10:47:40;;;;;;;5.20;2.45;;;;;;;;;;3586085;40;20078;-66
2021/07/07 10:50:05;;;;;;;3.38;2.08;;;;;;;;;;3585557;40;20024;-66
2021/07/07 10:52:31;;;;;;;4.67;2.00;;;;;;;;;;3583408;40;20037;-66
2021/07/07 10:54:56;;;;;;;5.40;2.20;;;;;;;;;;3584296;40;20274;-66
2021/07/07 10:57:21;;;;;;;4.18;2.00;;;;;;;;;;3583395;40;20107;-65
2021/07/07 10:59:47;;;;;;;3.90;2.10;;;;;;;;;;3585411;40;20020;-65
2021/07/07 11:02:12;;;;;;;4.30;2.10;;;;;;;;;;3582754;40;20041;-65
2021/07/07 11:04:37;;;;;;;2.20;1.77;;;;;;;;;;3585426;40;20032;-65
2021/07/07 11:07:02;;;;;;;4.68;2.08;;;;;;;;;;3583266;40;20021;-65
2021/07/07 11:09:29;;;;;;;4.20;2.23;;;;;;;;;;3584483;40;20036;-65
2021/07/07 11:11:54;;;;;;;8.43;3.42;;;;;;;;;;3581283;40;20020;-65
2021/07/07 11:14:20;;;;;;;2.97;2.33;;;;;;;;;;3585141;40;20072;-64
2021/07/07 11:16:45;;;;;;;2.75;2.00;;;;;;;;;;3584868;39;20032;-64
2021/07/07 11:19:10;;;;;;;9.60;2.30;;;;;;;;;;3582779;40;20112;-64
2021/07/07 11:21:37;;;;;;;4.63;2.20;;;;;;;;;;3586776;40;20028;-64
2021/07/07 11:24:02;;;;;;;2.42;1.63;;;;;;;;;;3586549;40;20306;-64
2021/07/07 11:26:28;;;;;;;4.27;1.97;;;;;;;;;;3586644;40;20040;-63
2021/07/07 11:28:53;;;;;;;4.45;1.65;;;;;;;;;;3587823;40;20028;-63
2021/07/07 11:31:18;;;;;;;7.43;2.60;;;;;;;;;;3584886;40;20901;-63
2021/07/07 11:33:44;;;;;;;3.80;1.73;;;;;;;;;;3582393;40;20799;-63
2021/07/07 11:36:09;;;;;;;2.63;1.70;;;;;;;;;;3584947;40;20617;-62
2021/07/07 11:38:34;;;;;;;10.18;4.10;;;;;;;;;;3604712;39;20762;-69
2021/07/07 11:41:00;;;;;;;6.75;2.63;;;;;;;;;;3583403;40;20104;-69
2021/07/07 11:43:27;;;;;;;8.68;5.75;;;;;;;;;;3580840;40;20302;-68
2021/07/07 11:45:52;;;;;;;3.97;1.88;;;;;;;;;;3582058;40;20036;-68
2021/07/07 11:48:21;;;;;;;5.07;1.60;;;;;;;;;;3597258;39;20414;-69
2021/07/07 11:50:48;;;;;;;2.55;1.65;;;;;;;;;;3584128;39;20024;-70
2021/07/07 11:53:13;;;;;;;5.45;1.80;;;;;;;;;;3593670;39;20045;-70
2021/07/07 11:55:38;;;;;;;3.03;2.27;;;;;;;;;;3587339;40;20031;-70
2021/07/07 11:58:04;;;;;;;3.80;2.03;;;;;;;;;;3583586;40;20036;-70
2021/07/07 12:00:29;;;;;;;6.77;1.70;;;;;;;;;;3578336;40;20620;-70
2021/07/07 12:02:54;;;;;;;3.77;1.50;;;;;;;;;;3582713;40;20040;-70
2021/07/07 12:05:19;;;;;;;5.77;1.50;;;;;;;;;;3584816;40;20036;-70
2021/07/07 12:07:44;;;;;;;4.13;1.40;;;;;;;;;;3585209;40;20408;-70
2021/07/07 12:10:10;;;;;;;3.03;1.17;;;;;;;;;;3583661;40;20069;-70
2021/07/07 12:12:35;;;;;;;3.92;1.50;;;;;;;;;;3584996;40;20817;-70
2021/07/07 12:15:00;;;;;;;4.20;1.50;;;;;;;;;;3585997;40;20301;-70
2021/07/07 12:17:26;;;;;;;1.90;1.30;;;;;;;;;;3587259;40;20132;-69
2021/07/07 12:19:51;;;;;;;6.35;4.20;;;;;;;;;;3586074;40;21137;-69
2021/07/07 12:22:20;;;;;;;10.67;4.30;;;;;;;;;;3584082;40;20029;-69
2021/07/07 12:24:46;;;;;;;5.10;3.15;;;;;;;;;;3585951;40;20439;-69
2021/07/07 12:27:13;;;;;;;4.47;1.55;;;;;;;;;;3586633;40;20024;-68
2021/07/07 12:29:38;;;;;;;3.42;1.95;;;;;;;;;;3585193;40;20406;-68
2021/07/07 12:32:04;;;;;;;9.07;4.50;;;;;;;;;;3586534;40;20028;-68
2021/07/07 12:34:29;;;;;;;8.90;3.60;;;;;;;;;;3584937;40;20079;-68
2021/07/07 12:36:54;;;;;;;6.63;2.83;;;;;;;;;;3583594;40;20755;-68
2021/07/07 12:39:19;;;;;;;2.50;1.50;;;;;;;;;;3584733;40;20129;-68
2021/07/07 12:41:45;;;;;;;1.83;1.10;;;;;;;;;;3582783;40;20063;-68
2021/07/07 12:44:14;;;;;;;3.07;1.30;;;;;;;;;;3584526;40;20034;-67
2021/07/07 12:46:39;;;;;;;4.32;1.17;;;;;;;;;;3584852;40;20028;-67
2021/07/07 12:49:04;;;;;;;1.23;1.03;;;;;;;;;;3583438;40;20025;-67
2021/07/07 12:51:29;;;;;;;1.80;1.20;;;;;;;;;;3587389;40;20061;-67
2021/07/07 12:53:54;;;;;;;2.53;1.10;;;;;;;;;;3585651;40;20029;-67
2021/07/07 12:56:20;;;;;;;4.70;1.20;;;;;;;;;;3582171;40;20045;-67
2021/07/07 12:58:45;;;;;;;4.27;1.50;;;;;;;;;;3586538;40;20262;-67
2021/07/07 13:01:10;;;;;;;1.40;1.30;;;;;;;;;;3584321;40;20083;-67
2021/07/07 13:03:36;;;;;;;2.70;1.35;;;;;;;;;;3582755;40;20032;-67
2021/07/07 13:06:03;;;;;;;1.80;1.30;;;;;;;;;;3584746;40;20047;-67
2021/07/07 13:08:46;;;;;;;2.33;1.40;;;;;;;;;;3585137;40;20279;-66
2021/07/07 13:11:11;;;;;;;3.17;1.30;;;;;;;;;;3584583;40;20087;-67
2021/07/07 13:13:37;;;;;;;1.40;1.20;;;;;;;;;;3584260;40;20044;-67
2021/07/07 13:16:02;;;;;;;2.53;1.50;;;;;;;;;;3591583;39;20042;-67
2021/07/07 13:18:27;;;;;;;9.10;2.03;;;;;;;;;;3584757;40;20477;-67
2021/07/07 13:20:53;;;;;;;7.30;3.57;;;;;;;;;;3584433;40;20335;-67
2021/07/07 13:23:18;;;;;;;7.23;3.77;;;;;;;;;;3586485;40;20028;-66
2021/07/07 13:25:43;;;;;;;4.93;1.70;;;;;;;;;;3585161;40;20036;-66
2021/07/07 13:28:08;;;;;;;1.73;1.40;;;;;;;;;;3586261;40;20032;-66
2021/07/07 13:30:33;;;;;;;6.80;1.33;;;;;;;;;;3582868;40;20679;-66
2021/07/07 13:32:59;;;;;;;1.53;1.20;;;;;;;;;;3587540;40;20044;-66
2021/07/07 13:35:24;;;;;;;2.93;1.37;;;;;;;;;;3598839;39;20044;-66
2021/07/07 13:37:49;;;;;;;1.43;1.30;;;;;;;;;;3584218;40;20032;-66
2021/07/07 13:40:15;;;;;;;4.05;1.42;;;;;;;;;;3584700;40;20043;-66
2021/07/07 13:42:40;;;;;;;2.43;1.20;;;;;;;;;;3584643;40;20032;-66
2021/07/07 13:45:05;;;;;;;3.20;1.13;;;;;;;;;;3582959;40;20114;-66
2021/07/07 13:47:30;;;;;;;1.83;1.10;;;;;;;;;;3585857;40;20032;-66
2021/07/07 13:49:55;;;;;;;1.93;1.13;;;;;;;;;;3592095;39;20080;-66
2021/07/07 13:52:21;;;;;;;1.10;1.00;;;;;;;;;;3585176;40;20734;-66
2021/07/07 13:54:46;;;;;;;3.63;1.10;;;;;;;;;;3585140;40;20412;-66
2021/07/07 13:57:11;;;;;;;5.53;1.20;;;;;;;;;;3583195;40;20033;-68
2021/07/07 13:59:36;;;;;;;0.77;0.70;;;;;;;;;;3583027;40;20058;-66
2021/07/07 14:02:02;;;;;;;4.05;1.02;;;;;;;;;;3585934;40;20100;-67
2021/07/07 14:04:27;;;;;;;10.63;5.90;;;;;;;;;;3580579;40;20032;-67
2021/07/07 14:06:54;;;;;;;0.97;0.60;;;;;;;;;;3585027;40;20484;-67
2021/07/07 14:09:19;;;;;;;2.92;0.77;;;;;;;;;;3584958;40;20032;-67
2021/07/07 14:11:44;;;;;;;0.90;0.60;;;;;;;;;;3584001;40;20028;-67
2021/07/07 14:14:09;;;;;;;1.60;0.70;;;;;;;;;;3579797;40;20036;-67
2021/07/07 14:16:35;;;;;;;3.83;1.00;;;;;;;;;;3585608;40;20036;-66
2021/07/07 14:19:00;;;;;;;3.43;0.93;;;;;;;;;;3584951;40;20028;-67
2021/07/07 14:21:25;;;;;;;2.70;1.10;;;;;;;;;;3582994;40;20125;-67
2021/07/07 14:23:50;;;;;;;2.78;0.88;;;;;;;;;;3584302;40;20048;-67
2021/07/07 14:26:16;;;;;;;2.03;1.10;;;;;;;;;;3584242;40;20028;-67
2021/07/07 14:28:41;;;;;;;3.50;0.88;;;;;;;;;;3584412;40;20068;-67